createdAt,value
2023-05-19T00:01:01.814Z,57.98
2023-05-19T00:03:31.774Z,58.10
2023-05-19T00:06:03.116Z,59.04
2023-05-19T00:08:32.796Z,60.50
2023-05-19T00:11:02.112Z,65.98
2023-05-19T00:13:30.967Z,70.35
2023-05-19T00:15:59.133Z,64.22
2023-05-19T00:18:30.078Z,56.51
2023-05-19T00:20:58.149Z,52.95
2023-05-19T00:23:26.068Z,53.47
2023-05-19T00:25:54.209Z,54.12
2023-05-19T00:28:22.239Z,55.13
2023-05-19T00:30:52.120Z,56.23
2023-05-19T00:33:19.987Z,57.22
2023-05-19T00:35:48.103Z,57.37
2023-05-19T00:38:15.921Z,58.22
2023-05-19T00:40:43.841Z,58.42
2023-05-19T00:43:13.620Z,58.24
2023-05-19T00:45:42.187Z,59.42
2023-05-19T00:48:10.111Z,60.16
2023-05-19T00:50:38.484Z,60.49
2023-05-19T00:53:06.453Z,60.99
2023-05-19T00:55:40.513Z,60.97
2023-05-19T00:58:11.704Z,66.38
2023-05-19T01:00:39.854Z,69.96
2023-05-19T01:03:11.515Z,63.71
2023-05-19T01:05:47.969Z,56.41
2023-05-19T01:08:16.789Z,52.64
2023-05-19T01:10:44.968Z,53.74
2023-05-19T01:13:13.035Z,54.36
2023-05-19T01:16:16.070Z,56.09
2023-05-19T01:19:06.212Z,56.87
2023-05-19T01:22:13.477Z,57.19
2023-05-19T01:25:13.357Z,58.60
2023-05-19T01:28:08.442Z,60.12
2023-05-19T01:30:40.751Z,68.89
2023-05-19T01:33:16.149Z,71.33
2023-05-19T01:35:46.319Z,66.63
2023-05-19T01:38:18.350Z,61.05
2023-05-19T01:40:49.641Z,53.34
2023-05-19T01:43:22.667Z,52.18
2023-05-19T01:45:51.716Z,53.56
2023-05-19T01:48:20.124Z,54.68
2023-05-19T01:50:48.259Z,55.73
2023-05-19T01:53:16.912Z,57.44
2023-05-19T01:55:49.769Z,60.62
2023-05-19T01:58:27.093Z,66.13
2023-05-19T02:01:25.788Z,69.75
2023-05-19T02:04:12.186Z,63.43
2023-05-19T02:07:01.345Z,56.61
2023-05-19T02:10:02.771Z,53.03
2023-05-19T02:12:36.229Z,53.86
2023-05-19T02:15:17.269Z,55.10
2023-05-19T02:17:52.061Z,55.63
2023-05-19T02:20:22.293Z,57.57
2023-05-19T02:22:50.396Z,57.59
2023-05-19T02:25:18.353Z,59.25
2023-05-19T02:27:46.486Z,59.73
2023-05-19T02:30:14.458Z,60.73
2023-05-19T02:32:42.422Z,67.39
2023-05-19T02:35:10.399Z,72.87
2023-05-19T02:37:38.903Z,66.26
2023-05-19T02:40:08.043Z,61.77
2023-05-19T02:42:35.913Z,55.66
2023-05-19T02:45:04.379Z,53.35
2023-05-19T02:47:34.735Z,54.88
2023-05-19T02:50:06.338Z,54.90
2023-05-19T02:52:34.313Z,56.14
2023-05-19T02:55:02.164Z,57.33
2023-05-19T02:57:31.889Z,58.85
2023-05-19T03:00:00.131Z,60.42
2023-05-19T03:02:28.156Z,60.35
2023-05-19T03:04:56.162Z,61.13
2023-05-19T03:07:25.716Z,67.14
2023-05-19T03:09:53.628Z,71.70
2023-05-19T03:12:22.042Z,65.15
2023-05-19T03:14:50.088Z,61.15
2023-05-19T03:17:17.970Z,54.15
2023-05-19T03:19:45.758Z,51.90
2023-05-19T03:22:13.659Z,53.33
2023-05-19T03:24:42.546Z,55.78
2023-05-19T03:27:12.529Z,57.05
2023-05-19T03:29:40.770Z,57.43
2023-05-19T03:32:08.699Z,58.40
2023-05-19T03:34:36.722Z,59.11
2023-05-19T03:37:04.870Z,59.89
2023-05-19T03:39:32.777Z,60.06
2023-05-19T03:42:00.905Z,60.57
2023-05-19T03:44:28.944Z,68.14
2023-05-19T03:46:56.965Z,73.98
2023-05-19T03:49:25.230Z,69.09
2023-05-19T03:51:53.508Z,62.88
2023-05-19T03:54:22.591Z,59.63
2023-05-19T03:56:50.821Z,53.65
2023-05-19T03:59:18.979Z,52.45
2023-05-19T04:01:47.699Z,54.18
2023-05-19T04:04:15.651Z,55.42
2023-05-19T04:06:43.522Z,55.69
2023-05-19T04:09:13.988Z,56.82
2023-05-19T04:11:43.364Z,58.17
2023-05-19T04:14:11.274Z,59.41
2023-05-19T04:16:39.166Z,65.26
2023-05-19T04:19:07.248Z,71.37
2023-05-19T04:21:35.416Z,65.65
2023-05-19T04:24:06.456Z,61.14
2023-05-19T04:26:36.173Z,57.37
2023-05-19T04:29:05.151Z,53.97
2023-05-19T04:31:34.491Z,54.70
2023-05-19T04:34:02.703Z,55.10
2023-05-19T04:36:31.394Z,57.31
2023-05-19T04:39:02.806Z,58.81
2023-05-19T04:41:30.657Z,58.14
2023-05-19T04:43:58.623Z,59.30
2023-05-19T04:46:30.312Z,63.28
2023-05-19T04:49:01.499Z,66.26
2023-05-19T04:51:31.563Z,65.64
2023-05-19T04:53:59.567Z,58.22
2023-05-19T04:56:29.019Z,54.74
2023-05-19T04:58:57.154Z,55.08
2023-05-19T05:01:26.366Z,56.48
2023-05-19T05:03:55.964Z,58.01
2023-05-19T05:06:23.819Z,65.41
2023-05-19T05:08:52.380Z,68.13
2023-05-19T05:11:20.791Z,63.23
2023-05-19T05:13:49.257Z,62.00
2023-05-19T05:16:17.685Z,56.18
2023-05-19T05:18:47.022Z,54.41
2023-05-19T05:21:16.062Z,55.65
2023-05-19T05:23:44.506Z,57.95
2023-05-19T05:26:24.772Z,59.26
2023-05-19T05:28:53.290Z,63.34
2023-05-19T05:31:21.209Z,63.65
2023-05-19T05:33:49.263Z,60.53
2023-05-19T05:36:17.169Z,57.92
2023-05-19T05:38:45.029Z,58.56
2023-05-19T05:41:12.990Z,61.56
2023-05-19T05:43:40.889Z,64.86
2023-05-19T05:46:09.260Z,62.65
2023-05-19T05:48:37.633Z,60.11
2023-05-19T05:51:06.559Z,59.20
2023-05-19T05:53:43.006Z,61.55
2023-05-19T05:56:12.368Z,64.69
2023-05-19T05:58:40.902Z,63.73
2023-05-19T06:01:12.325Z,60.36
2023-05-19T06:03:44.499Z,56.68
2023-05-19T06:06:13.203Z,56.79
2023-05-19T06:08:41.191Z,59.27
2023-05-19T06:11:09.515Z,61.74
2023-05-19T06:13:38.604Z,65.71
2023-05-19T06:16:06.894Z,63.10
2023-05-19T06:18:35.917Z,58.79
2023-05-19T06:21:04.053Z,57.53
2023-05-19T06:23:31.968Z,58.36
2023-05-19T06:25:59.889Z,60.53
2023-05-19T06:28:27.988Z,63.82
2023-05-19T06:30:56.421Z,63.93
2023-05-19T06:33:26.787Z,60.69
2023-05-19T06:35:57.072Z,56.11
2023-05-19T06:38:24.980Z,58.21
2023-05-19T06:40:52.869Z,60.55
2023-05-19T06:43:21.578Z,62.97
2023-05-19T06:45:49.507Z,62.84
2023-05-19T06:48:17.978Z,59.18
2023-05-19T06:50:46.242Z,57.91
2023-05-19T06:53:14.234Z,59.75
2023-05-19T06:55:54.434Z,61.30
2023-05-19T06:58:26.978Z,63.50
2023-05-19T07:00:54.884Z,61.44
2023-05-19T07:03:23.048Z,58.48
2023-05-19T07:05:51.810Z,58.36
2023-05-19T07:08:19.671Z,58.61
2023-05-19T07:10:47.489Z,62.14
2023-05-19T07:13:15.394Z,63.05
2023-05-19T07:15:43.567Z,60.12
2023-05-19T07:18:11.877Z,58.13
2023-05-19T07:20:39.963Z,59.33
2023-05-19T07:23:07.933Z,59.89
2023-05-19T07:25:35.761Z,62.69
2023-05-19T07:28:03.814Z,62.76
2023-05-19T07:30:32.212Z,58.75
2023-05-19T07:33:00.616Z,57.13
2023-05-19T07:35:28.661Z,58.53
2023-05-19T07:37:56.602Z,60.05
2023-05-19T07:40:25.190Z,62.00
2023-05-19T07:42:53.665Z,62.91
2023-05-19T07:45:21.505Z,62.67
2023-05-19T07:47:49.694Z,56.70
2023-05-19T07:50:19.762Z,56.39
2023-05-19T07:52:47.661Z,58.52
2023-05-19T07:55:16.556Z,60.08
2023-05-19T07:57:44.532Z,61.40
2023-05-19T08:00:13.482Z,62.60
2023-05-19T08:02:41.884Z,60.62
2023-05-19T08:05:10.840Z,58.12
2023-05-19T08:07:38.978Z,58.57
2023-05-19T08:10:07.658Z,60.13
2023-05-19T08:12:36.355Z,60.92
2023-05-19T08:15:05.183Z,62.21
2023-05-19T08:17:33.233Z,61.23
2023-05-19T08:20:01.086Z,57.18
2023-05-19T08:22:29.126Z,56.81
2023-05-19T08:24:58.564Z,58.32
2023-05-19T08:27:26.950Z,59.37
2023-05-19T08:29:55.957Z,60.23
2023-05-19T08:32:24.269Z,60.63
2023-05-19T08:34:52.497Z,61.11
2023-05-19T08:37:20.400Z,61.61
2023-05-19T08:39:49.387Z,61.86
2023-05-19T08:42:17.390Z,61.84
2023-05-19T08:44:45.492Z,61.85
2023-05-19T08:47:15.232Z,61.84
2023-05-19T08:49:47.175Z,61.78
2023-05-19T08:52:52.445Z,61.63
2023-05-19T08:55:34.161Z,61.47
2023-05-19T08:58:05.096Z,61.46
2023-05-19T09:00:34.301Z,61.11
2023-05-19T09:03:17.478Z,61.16
2023-05-19T09:05:51.530Z,60.54
2023-05-19T09:08:19.789Z,60.36
2023-05-19T09:10:47.711Z,60.23
2023-05-19T09:13:16.626Z,60.22
2023-05-19T09:15:45.618Z,60.15
2023-05-19T09:18:17.903Z,59.92
2023-05-19T09:20:47.039Z,59.59
2023-05-19T09:23:17.670Z,59.50
2023-05-19T09:25:53.523Z,59.06
2023-05-19T09:28:30.629Z,58.39
2023-05-19T09:31:11.740Z,57.95
2023-05-19T09:33:46.097Z,57.55
2023-05-19T09:36:14.661Z,57.45
2023-05-19T09:38:42.832Z,56.98
2023-05-19T09:41:11.202Z,56.97
2023-05-19T09:43:39.181Z,57.36
2023-05-19T09:46:11.170Z,57.90
2023-05-19T09:48:40.192Z,58.22
2023-05-19T09:51:10.812Z,57.95
2023-05-19T09:53:39.436Z,57.88
2023-05-19T09:56:10.091Z,58.32
2023-05-19T09:58:42.706Z,58.61
2023-05-19T10:01:11.676Z,59.08
2023-05-19T10:03:41.113Z,59.19
2023-05-19T10:06:10.178Z,59.51
2023-05-19T10:08:40.020Z,59.35
2023-05-19T10:11:10.195Z,58.95
2023-05-19T10:13:40.330Z,58.25
2023-05-19T10:16:09.985Z,57.96
2023-05-19T10:18:39.971Z,57.94
2023-05-19T10:21:09.822Z,57.86
2023-05-19T10:23:38.083Z,58.01
2023-05-19T10:26:08.027Z,57.79
2023-05-19T10:28:41.119Z,57.75
2023-05-19T10:31:17.066Z,57.61
2023-05-19T10:34:24.722Z,57.14
2023-05-19T10:37:27.210Z,56.35
2023-05-19T10:39:56.152Z,56.27
2023-05-19T10:42:46.146Z,56.17
2023-05-19T10:45:27.194Z,56.23
2023-05-19T10:47:55.771Z,56.51
2023-05-19T10:50:23.752Z,56.79
2023-05-19T10:52:56.977Z,56.88
2023-05-19T10:55:53.265Z,57.02
2023-05-19T10:58:45.866Z,57.30
2023-05-19T11:01:18.266Z,57.69
2023-05-19T11:03:57.303Z,58.08
2023-05-19T11:06:32.251Z,58.38
2023-05-19T11:09:10.351Z,58.42
2023-05-19T11:11:54.088Z,58.72
2023-05-19T11:14:27.124Z,58.63
2023-05-19T11:17:00.306Z,58.68
2023-05-19T11:19:33.335Z,58.52
2023-05-19T11:22:14.221Z,58.01
2023-05-19T11:24:50.127Z,57.51
2023-05-19T11:27:21.751Z,57.21
2023-05-19T11:29:51.984Z,57.00
2023-05-19T11:32:28.509Z,56.62
2023-05-19T11:34:57.957Z,55.72
2023-05-19T11:37:27.097Z,55.65
2023-05-19T11:39:55.122Z,55.23
2023-05-19T11:42:24.129Z,54.59
2023-05-19T11:44:56.353Z,54.49
2023-05-19T11:47:24.644Z,54.50
2023-05-19T11:49:54.871Z,54.22
2023-05-19T11:52:27.617Z,53.42
2023-05-19T11:54:56.950Z,53.01
2023-05-19T11:57:24.799Z,52.41
2023-05-19T11:59:54.264Z,52.47
2023-05-19T12:02:27.779Z,52.47
2023-05-19T12:04:56.155Z,52.34
2023-05-19T12:07:26.223Z,52.51
2023-05-19T12:09:55.709Z,52.81
2023-05-19T12:12:24.029Z,52.80
2023-05-19T12:14:53.532Z,52.86
2023-05-19T12:17:24.331Z,53.12
2023-05-19T12:19:52.747Z,53.02
2023-05-19T12:22:21.844Z,52.81
2023-05-19T12:24:51.031Z,52.24
2023-05-19T12:27:26.797Z,52.29
2023-05-19T12:30:00.201Z,51.90
2023-05-19T12:32:31.186Z,51.84
2023-05-19T12:34:59.152Z,52.00
2023-05-19T12:37:28.094Z,52.25
2023-05-19T12:39:57.158Z,52.38
2023-05-19T12:42:31.697Z,52.38
2023-05-19T12:45:03.344Z,52.18
2023-05-19T12:47:36.573Z,52.15
2023-05-19T12:50:10.331Z,52.28
2023-05-19T12:52:53.401Z,52.08
2023-05-19T12:55:22.349Z,51.74
2023-05-19T12:57:57.376Z,51.18
2023-05-19T13:00:31.264Z,51.07
2023-05-19T13:03:05.139Z,50.67
2023-05-19T13:05:39.390Z,50.59
2023-05-19T13:08:09.613Z,50.78
2023-05-19T13:10:41.506Z,50.58
2023-05-19T13:13:11.143Z,50.98
2023-05-19T13:15:46.559Z,51.00
2023-05-19T13:18:15.453Z,51.01
2023-05-19T13:20:45.084Z,51.19
2023-05-19T13:23:14.546Z,51.46
2023-05-19T13:25:43.621Z,51.34
2023-05-19T13:28:11.711Z,51.57
2023-05-19T13:30:42.014Z,51.45
2023-05-19T13:33:10.240Z,51.54
2023-05-19T13:35:39.083Z,51.01
2023-05-19T13:38:12.093Z,50.69
2023-05-19T13:40:41.022Z,50.40
2023-05-19T13:43:10.022Z,50.36
2023-05-19T13:45:38.256Z,50.59
2023-05-19T13:48:07.444Z,50.65
2023-05-19T13:50:36.595Z,50.80
2023-05-19T13:53:04.742Z,50.81
2023-05-19T13:55:33.169Z,50.69
2023-05-19T13:58:00.995Z,50.36
2023-05-19T14:00:31.424Z,50.26
2023-05-19T14:03:00.493Z,50.28
2023-05-19T14:05:29.203Z,49.91
2023-05-19T14:07:58.205Z,49.66
2023-05-19T14:10:26.509Z,49.54
2023-05-19T14:13:25.289Z,49.64
2023-05-19T14:15:42.736Z,49.59
2023-05-19T14:18:11.236Z,49.77
2023-05-19T14:20:39.289Z,49.92
2023-05-19T14:23:07.272Z,49.47
2023-05-19T14:25:35.103Z,49.47
2023-05-19T14:28:02.957Z,49.52
2023-05-19T14:30:31.715Z,50.14
2023-05-19T14:33:02.018Z,50.38
2023-05-19T14:35:29.992Z,50.42
2023-05-19T14:37:58.052Z,50.30
2023-05-19T14:40:26.123Z,50.47
2023-05-19T14:42:54.222Z,50.41
2023-05-19T14:45:22.247Z,49.84
2023-05-19T14:47:50.161Z,49.68
2023-05-19T14:50:18.151Z,49.71
2023-05-19T14:52:46.078Z,49.68
2023-05-19T14:55:13.972Z,49.65
2023-05-19T14:57:41.851Z,49.34
2023-05-19T15:00:10.476Z,49.49
2023-05-19T15:02:38.722Z,49.60
2023-05-19T15:05:08.322Z,49.68
2023-05-19T15:07:36.754Z,49.86
2023-05-19T15:10:05.447Z,49.90
2023-05-19T15:12:33.427Z,49.84
2023-05-19T15:15:01.354Z,49.69
2023-05-19T15:17:29.680Z,49.96
2023-05-19T15:19:57.679Z,50.11
2023-05-19T15:22:25.550Z,49.97
2023-05-19T15:24:53.541Z,50.06
2023-05-19T15:27:21.476Z,50.18
2023-05-19T15:29:49.805Z,50.24
2023-05-19T15:32:17.699Z,50.28
2023-05-19T15:34:46.231Z,50.36
2023-05-19T15:37:14.234Z,50.68
2023-05-19T15:39:43.201Z,50.93
2023-05-19T15:42:11.686Z,50.96
2023-05-19T15:44:40.660Z,50.93
2023-05-19T15:47:08.824Z,50.90
2023-05-19T15:49:36.984Z,50.92
2023-05-19T15:52:05.849Z,50.80
2023-05-19T15:54:33.751Z,50.93
2023-05-19T15:57:01.902Z,50.96
2023-05-19T15:59:30.486Z,50.96
2023-05-19T16:01:58.490Z,50.68
2023-05-19T16:04:26.462Z,50.71
2023-05-19T16:06:54.356Z,50.79
2023-05-19T16:09:22.262Z,50.64
2023-05-19T16:11:50.214Z,50.70
2023-05-19T16:14:18.197Z,50.84
2023-05-19T16:16:46.385Z,51.05
2023-05-19T16:19:14.607Z,51.11
2023-05-19T16:21:43.125Z,51.62
2023-05-19T16:24:11.403Z,51.53
2023-05-19T16:26:39.214Z,50.88
2023-05-19T16:29:07.049Z,51.15
2023-05-19T16:31:35.018Z,51.68
2023-05-19T16:34:02.982Z,51.55
2023-05-19T16:36:32.084Z,51.45
2023-05-19T16:38:59.963Z,51.46
2023-05-19T16:41:27.817Z,51.26
2023-05-19T16:43:55.850Z,51.22
2023-05-19T16:46:23.941Z,51.59
2023-05-19T16:48:52.028Z,51.89
2023-05-19T16:51:20.043Z,52.25
2023-05-19T16:53:47.885Z,52.66
2023-05-19T16:56:15.857Z,52.85
2023-05-19T16:58:43.721Z,53.21
2023-05-19T17:01:12.295Z,53.75
2023-05-19T17:03:40.477Z,54.24
2023-05-19T17:06:08.490Z,54.54
2023-05-19T17:08:36.426Z,55.08
2023-05-19T17:11:06.584Z,55.50
2023-05-19T17:13:36.505Z,55.71
2023-05-19T17:16:04.605Z,55.84
2023-05-19T17:18:32.688Z,56.03
2023-05-19T17:21:03.883Z,56.02
2023-05-19T17:23:32.970Z,56.15
2023-05-19T17:26:02.045Z,56.38
2023-05-19T17:28:30.106Z,56.41
2023-05-19T17:30:58.560Z,56.53
2023-05-19T17:33:26.597Z,56.75
2023-05-19T17:35:54.604Z,57.12
2023-05-19T17:38:22.690Z,57.39
2023-05-19T17:40:50.796Z,57.71
2023-05-19T17:43:18.830Z,57.98
2023-05-19T17:45:47.387Z,58.31
2023-05-19T17:48:15.324Z,58.72
2023-05-19T17:50:43.636Z,58.91
2023-05-19T17:53:12.270Z,58.86
2023-05-19T17:55:41.420Z,59.06
2023-05-19T17:58:09.729Z,59.14
2023-05-19T18:00:38.068Z,59.19
2023-05-19T18:03:06.827Z,59.51
2023-05-19T18:05:35.417Z,59.74
2023-05-19T18:08:07.287Z,60.21
2023-05-19T18:10:41.463Z,60.52
2023-05-19T18:13:11.443Z,60.95
2023-05-19T18:15:39.436Z,61.53
2023-05-19T18:18:10.604Z,61.79
2023-05-19T18:20:40.906Z,61.68
2023-05-19T18:23:09.149Z,62.30
2023-05-19T18:25:37.566Z,62.91
2023-05-19T18:28:05.589Z,57.20
2023-05-19T18:30:33.691Z,55.86
2023-05-19T18:33:04.009Z,56.84
2023-05-19T18:35:32.153Z,58.57
2023-05-19T18:38:00.185Z,59.45
2023-05-19T18:40:28.251Z,59.81
2023-05-19T18:42:56.119Z,60.50
2023-05-19T18:45:23.970Z,61.24
2023-05-19T18:47:52.302Z,61.50
2023-05-19T18:50:20.691Z,63.74
2023-05-19T18:52:48.687Z,66.15
2023-05-19T18:55:16.717Z,57.98
2023-05-19T18:57:46.051Z,55.82
2023-05-19T19:00:14.907Z,57.24
2023-05-19T19:02:43.050Z,58.86
2023-05-19T19:05:13.707Z,59.57
2023-05-19T19:07:44.452Z,60.48
2023-05-19T19:10:12.838Z,61.65
2023-05-19T19:12:41.004Z,62.19
2023-05-19T19:15:09.952Z,62.72
2023-05-19T19:17:40.305Z,59.94
2023-05-19T19:20:09.823Z,58.27
2023-05-19T19:22:38.037Z,59.74
2023-05-19T19:25:06.368Z,61.37
2023-05-19T19:27:35.777Z,62.90
2023-05-19T19:30:04.820Z,61.77
2023-05-19T19:32:32.843Z,59.53
2023-05-19T19:35:00.976Z,57.29
2023-05-19T19:37:28.951Z,59.42
2023-05-19T19:39:56.920Z,61.28
2023-05-19T19:42:24.819Z,62.26
2023-05-19T19:44:56.111Z,63.69
2023-05-19T19:47:24.099Z,61.83
2023-05-19T19:49:52.076Z,58.48
2023-05-19T19:52:20.095Z,58.49
2023-05-19T19:54:48.317Z,60.73
2023-05-19T19:57:17.330Z,63.11
2023-05-19T19:59:45.734Z,64.79
2023-05-19T20:02:14.329Z,60.12
2023-05-19T20:04:42.490Z,56.95
2023-05-19T20:07:10.402Z,58.61
2023-05-19T20:09:38.372Z,60.10
2023-05-19T20:12:07.310Z,61.87
2023-05-19T20:14:35.392Z,64.33
2023-05-19T20:17:03.784Z,66.00
2023-05-19T20:19:31.749Z,61.87
2023-05-19T20:21:59.890Z,57.55
2023-05-19T20:24:27.784Z,57.72
2023-05-19T20:26:55.741Z,60.13
2023-05-19T20:29:24.082Z,62.40
2023-05-19T20:31:52.328Z,65.58
2023-05-19T20:34:20.434Z,61.67
2023-05-19T20:36:48.858Z,59.56
2023-05-19T20:39:16.685Z,57.10
2023-05-19T20:41:44.658Z,58.91
2023-05-19T20:44:12.913Z,60.73
2023-05-19T20:46:40.845Z,63.48
2023-05-19T20:49:08.629Z,66.28
2023-05-19T20:51:37.214Z,64.20
2023-05-19T20:54:06.412Z,61.95
2023-05-19T20:56:35.142Z,59.06
2023-05-19T20:59:04.187Z,55.05
2023-05-19T21:01:32.228Z,55.54
2023-05-19T21:04:01.090Z,57.80
2023-05-19T21:06:29.079Z,59.56
2023-05-19T21:08:57.036Z,62.94
2023-05-19T21:11:24.838Z,66.42
2023-05-19T21:13:54.874Z,64.91
2023-05-19T21:16:23.423Z,61.83
2023-05-19T21:18:51.392Z,56.81
2023-05-19T21:21:19.350Z,55.04
2023-05-19T21:23:47.211Z,56.36
2023-05-19T21:26:15.588Z,58.68
2023-05-19T21:28:43.955Z,59.92
2023-05-19T21:31:11.910Z,63.82
2023-05-19T21:33:39.893Z,67.64
2023-05-19T21:36:08.309Z,65.54
2023-05-19T21:38:36.208Z,62.47
2023-05-19T21:41:04.034Z,60.83
2023-05-19T21:43:31.889Z,56.15
2023-05-19T21:45:59.739Z,54.60
2023-05-19T21:48:27.668Z,56.39
2023-05-19T21:50:55.958Z,58.00
2023-05-19T21:53:24.652Z,59.22
2023-05-19T21:55:52.609Z,60.89
2023-05-19T21:58:20.594Z,65.16
2023-05-19T22:00:54.506Z,68.51
2023-05-19T22:03:22.846Z,65.87
2023-05-19T22:05:55.631Z,62.89
2023-05-19T22:08:23.611Z,60.41
2023-05-19T22:10:52.979Z,56.56
2023-05-19T22:13:21.801Z,54.71
2023-05-19T22:15:51.048Z,56.17
2023-05-19T22:18:19.071Z,58.27
2023-05-19T22:20:47.083Z,59.60
2023-05-19T22:23:15.432Z,64.39
2023-05-19T22:25:43.447Z,67.23
2023-05-19T22:28:11.409Z,64.46
2023-05-19T22:30:41.017Z,61.27
2023-05-19T22:33:11.457Z,57.14
2023-05-19T22:35:39.450Z,55.53
2023-05-19T22:38:08.813Z,56.64
2023-05-19T22:40:38.868Z,58.65
2023-05-19T22:43:06.864Z,59.42
2023-05-19T22:45:36.762Z,64.20
2023-05-19T22:48:05.652Z,66.40
2023-05-19T22:50:33.578Z,63.22
2023-05-19T22:53:01.613Z,61.21
2023-05-19T22:55:29.454Z,56.09
2023-05-19T22:57:57.314Z,55.83
2023-05-19T23:00:25.773Z,57.79
2023-05-19T23:02:53.696Z,59.91
2023-05-19T23:05:21.592Z,61.77
2023-05-19T23:07:49.999Z,65.64
2023-05-19T23:10:18.119Z,67.29
2023-05-19T23:12:45.979Z,65.13
2023-05-19T23:15:13.950Z,61.21
2023-05-19T23:17:41.905Z,56.61
2023-05-19T23:20:11.004Z,55.29
2023-05-19T23:22:38.994Z,57.04
2023-05-19T23:25:07.920Z,59.00
2023-05-19T23:27:36.679Z,59.67
2023-05-19T23:30:05.545Z,65.19
2023-05-19T23:32:33.376Z,67.41
2023-05-19T23:35:16.264Z,63.33
2023-05-19T23:37:44.334Z,59.92
2023-05-19T23:40:13.053Z,55.44
2023-05-19T23:42:41.351Z,54.53
2023-05-19T23:45:09.712Z,56.21
2023-05-19T23:47:37.741Z,57.21
2023-05-19T23:50:06.206Z,59.36
2023-05-19T23:52:34.169Z,60.61
2023-05-19T23:55:03.902Z,64.68
2023-05-19T23:57:32.150Z,63.18
